createdAt,value
2024-01-14T00:00:12.214Z,15.05
2024-01-14T00:02:40.055Z,14.32
2024-01-14T00:05:07.927Z,16.17
2024-01-14T00:07:34.976Z,13.25
2024-01-14T00:10:01.730Z,15.27
2024-01-14T00:12:28.582Z,14.88
2024-01-14T00:14:55.470Z,14.13
2024-01-14T00:17:22.314Z,12.80
2024-01-14T00:19:49.270Z,13.48
2024-01-14T00:22:17.733Z,16.02
2024-01-14T00:24:45.947Z,13.20
2024-01-14T00:27:13.537Z,13.73
2024-01-14T00:29:41.180Z,15.77
2024-01-14T00:32:08.493Z,13.05
2024-01-14T00:34:35.677Z,12.25
2024-01-14T00:37:02.545Z,13.05
2024-01-14T00:39:30.128Z,14.05
2024-01-14T00:41:57.031Z,13.80
2024-01-14T00:44:27.256Z,16.77
2024-01-14T00:46:54.409Z,14.45
2024-01-14T00:49:21.186Z,16.88
2024-01-14T00:51:48.061Z,14.27
2024-01-14T00:54:14.863Z,17.90
2024-01-14T00:56:42.878Z,15.45
2024-01-14T00:59:09.568Z,16.00
2024-01-14T01:01:36.361Z,15.68
2024-01-14T01:04:03.234Z,18.50
2024-01-14T01:06:30.339Z,14.90
2024-01-14T01:08:57.235Z,17.13
2024-01-14T01:11:23.999Z,16.40
2024-01-14T01:13:50.836Z,18.15
2024-01-14T01:16:17.529Z,17.00
2024-01-14T01:18:44.457Z,16.67
2024-01-14T01:21:11.339Z,16.80
2024-01-14T01:23:38.431Z,15.52
2024-01-14T01:26:05.324Z,14.57
2024-01-14T01:28:32.034Z,16.27
2024-01-14T01:30:58.885Z,16.05
2024-01-14T01:33:25.787Z,14.07
2024-01-14T01:35:52.575Z,15.80
2024-01-14T01:38:19.440Z,15.68
2024-01-14T01:40:47.488Z,15.93
2024-01-14T01:43:14.601Z,15.73
2024-01-14T01:45:41.278Z,15.73
2024-01-14T01:48:08.467Z,16.83
2024-01-14T01:50:37.416Z,15.32
2024-01-14T01:53:04.676Z,16.40
2024-01-14T01:55:31.301Z,16.77
2024-01-14T01:57:58.134Z,15.30
2024-01-14T02:00:24.823Z,15.10
2024-01-14T02:02:51.980Z,16.88
2024-01-14T02:05:20.511Z,15.50
2024-01-14T02:07:47.336Z,15.02
2024-01-14T02:10:13.972Z,14.15
2024-01-14T02:12:40.691Z,16.13
2024-01-14T02:15:07.777Z,15.27
2024-01-14T02:17:34.613Z,16.67
2024-01-14T02:20:01.281Z,15.00
2024-01-14T02:22:30.141Z,16.20
2024-01-14T02:24:56.875Z,15.30
2024-01-14T02:27:24.111Z,14.90
2024-01-14T02:29:51.188Z,16.05
2024-01-14T02:32:18.794Z,14.65
2024-01-14T02:34:45.684Z,14.38
2024-01-14T02:37:12.442Z,16.52
2024-01-14T02:39:39.256Z,14.07
2024-01-14T02:42:06.243Z,13.80
2024-01-14T02:44:33.136Z,13.07
2024-01-14T02:47:00.083Z,14.02
2024-01-14T02:49:28.282Z,14.50
2024-01-14T02:51:55.211Z,15.20
2024-01-14T02:54:21.912Z,14.15
2024-01-14T02:56:48.800Z,14.70
2024-01-14T02:59:15.553Z,13.40
2024-01-14T03:01:49.312Z,14.13
2024-01-14T03:04:16.276Z,13.77
2024-01-14T03:06:43.087Z,14.15
2024-01-14T03:09:10.409Z,13.45
2024-01-14T03:11:37.287Z,14.30
2024-01-14T03:14:04.083Z,12.38
2024-01-14T03:16:31.027Z,15.02
2024-01-14T03:18:57.862Z,13.20
2024-01-14T03:21:24.666Z,13.05
2024-01-14T03:23:51.357Z,14.27
2024-01-14T03:26:18.026Z,15.90
2024-01-14T03:28:44.689Z,13.95
2024-01-14T03:31:18.139Z,13.13
2024-01-14T03:33:45.162Z,13.32
2024-01-14T03:36:15.955Z,13.75
2024-01-14T03:38:43.480Z,13.15
2024-01-14T03:41:10.179Z,12.70
2024-01-14T03:43:37.076Z,12.70
2024-01-14T03:46:03.893Z,12.48
2024-01-14T03:48:49.123Z,12.90
2024-01-14T03:51:16.066Z,13.93
2024-01-14T03:53:42.793Z,12.75
2024-01-14T03:56:09.545Z,14.57
2024-01-14T03:58:36.456Z,15.25
2024-01-14T04:01:03.133Z,14.45
2024-01-14T04:03:29.968Z,14.48
2024-01-14T04:05:57.121Z,13.77
2024-01-14T04:08:23.899Z,13.27
2024-01-14T04:10:50.661Z,14.32
2024-01-14T04:13:17.469Z,14.45
2024-01-14T04:15:44.223Z,13.38
2024-01-14T04:18:11.101Z,15.55
2024-01-14T04:20:37.923Z,14.50
2024-01-14T04:23:04.591Z,16.55
2024-01-14T04:25:33.547Z,15.35
2024-01-14T04:28:00.806Z,15.23
2024-01-14T04:30:27.712Z,17.50
2024-01-14T04:32:54.538Z,18.83
2024-01-14T04:35:21.304Z,14.38
2024-01-14T04:37:47.919Z,14.82
2024-01-14T04:40:14.742Z,16.77
2024-01-14T04:42:41.405Z,15.20
2024-01-14T04:45:08.887Z,15.32
2024-01-14T04:47:35.671Z,14.57
2024-01-14T04:50:02.790Z,16.92
2024-01-14T04:52:29.504Z,14.82
2024-01-14T04:54:56.213Z,14.68
2024-01-14T04:57:22.966Z,15.23
2024-01-14T04:59:49.732Z,14.55
2024-01-14T05:02:16.505Z,14.27
2024-01-14T05:04:43.195Z,15.23
2024-01-14T05:07:09.808Z,15.65
2024-01-14T05:09:36.685Z,16.55
2024-01-14T05:12:03.636Z,16.13
2024-01-14T05:14:30.416Z,14.23
2024-01-14T05:16:57.129Z,13.98
2024-01-14T05:19:24.311Z,15.68
2024-01-14T05:21:54.350Z,14.32
2024-01-14T05:24:21.220Z,10.65
2024-01-14T05:26:47.856Z,14.13
2024-01-14T05:29:14.643Z,15.25
2024-01-14T05:31:41.513Z,14.98
2024-01-14T05:34:08.336Z,14.82
2024-01-14T05:36:35.908Z,14.88
2024-01-14T05:39:02.646Z,13.43
2024-01-14T05:41:29.343Z,12.63
2024-01-14T05:43:56.043Z,15.07
2024-01-14T05:46:22.704Z,14.80
2024-01-14T05:48:49.616Z,15.80
2024-01-14T05:51:16.450Z,16.65
2024-01-14T05:53:43.301Z,16.65
2024-01-14T05:56:10.070Z,16.30
2024-01-14T05:58:36.876Z,16.02
2024-01-14T06:01:04.494Z,15.38
2024-01-14T06:03:31.248Z,14.60
2024-01-14T06:05:58.094Z,14.70
2024-01-14T06:08:24.924Z,15.70
2024-01-14T06:10:51.566Z,16.88
2024-01-14T06:13:18.300Z,18.30
2024-01-14T06:15:45.010Z,16.27
2024-01-14T06:18:11.992Z,16.48
2024-01-14T06:20:38.885Z,14.20
2024-01-14T06:23:05.942Z,16.67
2024-01-14T06:25:32.741Z,17.85
2024-01-14T06:27:59.371Z,15.65
2024-01-14T06:30:26.227Z,16.00
2024-01-14T06:32:56.622Z,16.38
2024-01-14T06:35:23.428Z,17.88
2024-01-14T06:37:51.546Z,18.70
2024-01-14T06:40:24.144Z,14.60
2024-01-14T06:42:55.575Z,14.50
2024-01-14T06:45:22.440Z,16.92
2024-01-14T06:47:49.328Z,17.02
2024-01-14T06:50:16.892Z,16.65
2024-01-14T06:52:43.804Z,16.23
2024-01-14T06:55:12.882Z,14.10
2024-01-14T06:57:40.099Z,13.88
2024-01-14T07:00:09.635Z,17.08
2024-01-14T07:02:36.667Z,14.32
2024-01-14T07:05:04.228Z,16.15
2024-01-14T07:07:30.999Z,16.17
2024-01-14T07:09:57.700Z,15.98
2024-01-14T07:12:25.744Z,15.23
2024-01-14T07:14:52.802Z,15.40
2024-01-14T07:17:20.323Z,15.75
2024-01-14T07:19:47.212Z,15.02
2024-01-14T07:22:14.163Z,14.48
2024-01-14T07:24:40.868Z,13.60
2024-01-14T07:27:07.669Z,14.35
2024-01-14T07:29:34.307Z,15.23
2024-01-14T07:32:04.359Z,15.73
2024-01-14T07:34:33.344Z,13.55
2024-01-14T07:37:00.081Z,12.77
2024-01-14T07:39:27.108Z,15.30
2024-01-14T07:41:53.857Z,15.18
2024-01-14T07:44:21.357Z,14.50
2024-01-14T07:46:48.036Z,14.75
2024-01-14T07:49:16.185Z,12.15
2024-01-14T07:51:42.955Z,14.90
2024-01-14T07:54:09.979Z,14.30
2024-01-14T07:56:36.695Z,12.70
2024-01-14T07:59:03.338Z,12.05
2024-01-14T08:01:31.394Z,13.18
2024-01-14T08:03:58.423Z,12.98
2024-01-14T08:06:25.635Z,13.30
2024-01-14T08:08:52.602Z,12.68
2024-01-14T08:11:38.016Z,13.43
2024-01-14T08:14:05.686Z,11.65
2024-01-14T08:16:32.314Z,10.85
2024-01-14T08:18:59.205Z,11.85
2024-01-14T08:21:25.981Z,11.65
2024-01-14T08:23:52.891Z,10.00
2024-01-14T08:26:19.665Z,12.10
2024-01-14T08:28:46.420Z,11.97
2024-01-14T08:31:13.303Z,12.10
2024-01-14T08:33:43.763Z,12.23
2024-01-14T08:36:11.236Z,12.23
2024-01-14T08:38:37.934Z,11.00
2024-01-14T08:41:04.864Z,11.73
2024-01-14T08:43:31.644Z,12.95
2024-01-14T08:45:58.388Z,12.07
2024-01-14T08:48:25.155Z,12.02
2024-01-14T08:50:52.163Z,10.57
2024-01-14T08:53:18.794Z,11.00
2024-01-14T08:55:45.546Z,11.40
2024-01-14T08:58:12.199Z,10.43
2024-01-14T09:00:38.926Z,11.90
2024-01-14T09:03:05.919Z,10.93
2024-01-14T09:05:32.708Z,10.87
2024-01-14T09:07:59.391Z,10.10
2024-01-14T09:10:26.166Z,11.53
2024-01-14T09:12:52.940Z,10.20
2024-01-14T09:15:19.703Z,11.67
2024-01-14T09:17:46.476Z,10.90
2024-01-14T09:20:13.510Z,10.67
2024-01-14T09:22:40.492Z,10.70
2024-01-14T09:25:08.801Z,13.13
2024-01-14T09:27:36.722Z,10.90
2024-01-14T09:30:03.701Z,12.67
2024-01-14T09:32:30.503Z,14.10
2024-01-14T09:34:57.459Z,12.43
2024-01-14T09:37:24.519Z,11.20
2024-01-14T09:40:10.069Z,11.60
2024-01-14T09:42:40.542Z,10.55
2024-01-14T09:45:07.578Z,10.45
2024-01-14T09:47:34.971Z,13.82
2024-01-14T09:50:02.450Z,11.52
2024-01-14T09:52:30.646Z,12.90
2024-01-14T09:54:57.620Z,13.05
2024-01-14T09:57:25.006Z,12.57
2024-01-14T09:59:52.345Z,11.43
2024-01-14T10:02:20.080Z,14.55
2024-01-14T10:04:48.222Z,13.07
2024-01-14T10:07:15.598Z,13.23
2024-01-14T10:09:43.920Z,14.00
2024-01-14T10:12:11.468Z,12.68
2024-01-14T10:14:38.917Z,13.23
2024-01-14T10:17:05.889Z,12.52
2024-01-14T10:19:32.840Z,14.35
2024-01-14T10:22:14.516Z,12.88
2024-01-14T10:24:50.642Z,12.77
2024-01-14T10:27:33.690Z,13.27
2024-01-14T10:30:05.719Z,12.13
2024-01-14T10:33:14.858Z,11.70
2024-01-14T10:35:20.381Z,12.82
2024-01-14T10:37:47.428Z,13.23
2024-01-14T10:40:14.444Z,14.35
2024-01-14T10:42:41.235Z,12.70
2024-01-14T10:45:08.524Z,13.52
2024-01-14T10:47:36.007Z,13.07
2024-01-14T10:50:03.122Z,14.75
2024-01-14T10:52:34.147Z,12.52
2024-01-14T10:55:12.632Z,13.52
2024-01-14T10:57:39.770Z,12.63
2024-01-14T11:00:10.942Z,13.90
2024-01-14T11:02:39.300Z,13.75
2024-01-14T11:05:10.038Z,14.10
2024-01-14T11:07:55.516Z,14.27
2024-01-14T11:10:22.320Z,16.20
2024-01-14T11:12:54.941Z,14.45
2024-01-14T11:15:28.944Z,14.73
2024-01-14T11:18:07.595Z,15.48
2024-01-14T11:20:47.045Z,15.90
2024-01-14T11:23:24.417Z,14.07
2024-01-14T11:25:51.245Z,14.20
2024-01-14T11:28:18.224Z,15.57
2024-01-14T11:30:58.729Z,14.18
2024-01-14T11:33:33.554Z,13.73
2024-01-14T11:36:01.965Z,14.27
2024-01-14T11:38:38.954Z,15.35
2024-01-14T11:41:31.200Z,13.73
2024-01-14T11:44:03.682Z,14.05
2024-01-14T11:46:39.548Z,13.25
2024-01-14T11:49:24.786Z,13.30
2024-01-14T11:51:55.574Z,14.18
2024-01-14T11:54:24.250Z,11.10
2024-01-14T11:56:51.890Z,14.48
2024-01-14T11:59:33.697Z,15.98
2024-01-14T12:02:15.079Z,13.02
2024-01-14T12:04:41.959Z,14.20
2024-01-14T12:07:08.889Z,15.45
2024-01-14T12:09:35.920Z,15.35
2024-01-14T12:12:06.502Z,13.10
2024-01-14T12:14:38.214Z,15.88
2024-01-14T12:17:11.366Z,14.20
2024-01-14T12:19:38.311Z,15.40
2024-01-14T12:22:05.332Z,15.10
2024-01-14T12:24:32.335Z,16.52
2024-01-14T12:26:59.415Z,16.13
2024-01-14T12:29:26.238Z,16.88
2024-01-14T12:31:56.771Z,19.67
2024-01-14T12:34:24.773Z,15.50
2024-01-14T12:36:54.376Z,17.73
2024-01-14T12:39:22.213Z,18.85
2024-01-14T12:41:54.246Z,17.90
2024-01-14T12:44:23.121Z,17.38
2024-01-14T12:46:56.464Z,18.55
2024-01-14T12:49:26.224Z,15.25
2024-01-14T12:52:02.729Z,14.52
2024-01-14T12:54:29.756Z,15.95
2024-01-14T12:57:04.565Z,16.40
2024-01-14T12:59:32.639Z,16.17
2024-01-14T13:02:01.793Z,18.05
2024-01-14T13:04:28.785Z,17.13
2024-01-14T13:06:58.896Z,17.33
2024-01-14T13:09:27.160Z,15.98
2024-01-14T13:11:53.897Z,16.38
2024-01-14T13:14:20.614Z,16.40
2024-01-14T13:16:53.826Z,15.77
2024-01-14T13:19:22.236Z,14.85
2024-01-14T13:21:49.861Z,14.93
2024-01-14T13:24:16.905Z,13.98
2024-01-14T13:26:43.930Z,15.70
2024-01-14T13:29:12.026Z,13.85
2024-01-14T13:31:41.269Z,14.73
2024-01-14T13:34:09.351Z,14.88
2024-01-14T13:36:36.787Z,14.20
2024-01-14T13:39:05.871Z,14.75
2024-01-14T13:41:33.689Z,12.10
2024-01-14T13:44:12.412Z,13.38
2024-01-14T13:46:48.037Z,12.35
2024-01-14T13:49:15.571Z,12.25
2024-01-14T13:51:42.869Z,12.40
2024-01-14T13:54:28.686Z,13.13
2024-01-14T13:56:56.098Z,14.43
2024-01-14T13:59:23.611Z,14.00
2024-01-14T14:01:50.975Z,12.52
2024-01-14T14:04:25.355Z,13.85
2024-01-14T14:07:11.929Z,12.73
2024-01-14T14:09:38.796Z,14.82
2024-01-14T14:12:06.099Z,13.77
2024-01-14T14:14:33.799Z,13.88
2024-01-14T14:17:00.493Z,14.32
2024-01-14T14:19:27.367Z,14.35
2024-01-14T14:22:00.273Z,14.52
2024-01-14T14:24:30.625Z,14.10
2024-01-14T14:26:57.859Z,14.68
2024-01-14T14:29:26.326Z,14.88
2024-01-14T14:31:54.393Z,14.90
2024-01-14T14:34:22.061Z,13.95
2024-01-14T14:36:50.118Z,15.43
2024-01-14T14:39:18.292Z,14.93
2024-01-14T14:41:45.328Z,15.00
2024-01-14T14:44:12.252Z,15.55
2024-01-14T14:46:40.154Z,14.80
2024-01-14T14:49:07.225Z,14.82
2024-01-14T14:51:39.199Z,13.65
2024-01-14T14:54:11.809Z,15.80
2024-01-14T14:59:06.286Z,13.15
2024-01-14T15:01:41.180Z,9.93
2024-01-14T15:04:11.964Z,15.30
2024-01-14T15:06:40.397Z,15.43
2024-01-14T15:09:09.397Z,14.90
2024-01-14T15:11:39.363Z,15.60
2024-01-14T15:14:10.914Z,12.80
2024-01-14T15:16:38.114Z,15.05
2024-01-14T15:19:05.396Z,13.27
2024-01-14T15:21:52.509Z,12.02
2024-01-14T15:24:19.425Z,14.75
2024-01-14T15:26:46.678Z,14.43
2024-01-14T15:29:13.461Z,15.25
2024-01-14T15:31:40.417Z,13.80
2024-01-14T15:34:07.691Z,15.70
2024-01-14T15:36:34.773Z,13.13
2024-01-14T15:39:01.707Z,14.65
2024-01-14T15:41:29.442Z,13.40
2024-01-14T15:43:56.228Z,13.15
2024-01-14T15:46:22.934Z,15.10
2024-01-14T15:48:51.496Z,14.20
2024-01-14T15:51:19.293Z,14.98
2024-01-14T15:53:46.134Z,11.38
2024-01-14T15:56:13.116Z,13.07
2024-01-14T15:58:41.504Z,13.02
2024-01-14T16:01:11.991Z,12.25
2024-01-14T16:03:43.482Z,12.80
2024-01-14T16:06:12.213Z,13.50
2024-01-14T16:08:38.854Z,12.98
2024-01-14T16:11:07.312Z,13.15
2024-01-14T16:13:38.149Z,14.95
2024-01-14T16:16:06.450Z,12.65
2024-01-14T16:18:36.625Z,13.23
2024-01-14T16:21:06.433Z,12.75
2024-01-14T16:23:39.502Z,13.32
2024-01-14T16:26:08.296Z,13.55
2024-01-14T16:28:35.215Z,12.77
2024-01-14T16:31:10.481Z,12.48
2024-01-14T16:33:47.088Z,13.18
2024-01-14T16:36:16.367Z,13.57
2024-01-14T16:38:44.236Z,14.75
2024-01-14T16:41:11.593Z,10.25
2024-01-14T16:43:38.599Z,8.38
2024-01-14T16:46:06.569Z,9.60
2024-01-14T16:48:34.419Z,11.05
2024-01-14T16:51:08.638Z,12.60
2024-01-14T16:53:43.648Z,13.50
2024-01-14T16:56:13.259Z,12.73
2024-01-14T16:58:42.375Z,13.02
2024-01-14T17:01:15.806Z,12.80
2024-01-14T17:03:46.674Z,11.70
2024-01-14T17:06:15.923Z,14.57
2024-01-14T17:08:45.544Z,13.13
2024-01-14T17:11:14.361Z,14.02
2024-01-14T17:13:41.762Z,13.30
2024-01-14T17:16:10.663Z,13.02
2024-01-14T17:18:40.366Z,9.73
2024-01-14T17:21:08.072Z,12.90
2024-01-14T17:23:35.377Z,14.23
2024-01-14T17:26:07.584Z,13.82
2024-01-14T17:28:54.230Z,12.57
2024-01-14T17:31:21.176Z,12.07
2024-01-14T17:33:49.226Z,13.13
2024-01-14T17:36:18.120Z,11.15
2024-01-14T17:38:46.514Z,11.45
2024-01-14T17:41:13.378Z,11.55
2024-01-14T17:43:40.805Z,12.80
2024-01-14T17:46:09.725Z,11.65
2024-01-14T17:48:41.661Z,10.85
2024-01-14T17:51:10.293Z,10.75
2024-01-14T17:53:42.631Z,11.63
2024-01-14T17:56:09.620Z,11.30
2024-01-14T17:58:36.383Z,11.15
2024-01-14T18:01:05.583Z,10.43
2024-01-14T18:03:32.630Z,10.70
2024-01-14T18:06:00.018Z,9.93
2024-01-14T18:08:26.946Z,10.02
2024-01-14T18:10:53.656Z,9.52
2024-01-14T18:13:21.398Z,9.88
2024-01-14T18:15:48.968Z,9.05
2024-01-14T18:18:16.529Z,10.73
2024-01-14T18:20:44.187Z,11.15
2024-01-14T18:23:13.550Z,9.95
2024-01-14T18:25:46.081Z,10.15
2024-01-14T18:28:14.256Z,9.57
2024-01-14T18:30:41.339Z,8.57
2024-01-14T18:33:11.748Z,9.75
2024-01-14T18:35:45.603Z,10.82
2024-01-14T18:38:14.670Z,10.55
2024-01-14T18:40:41.812Z,11.05
2024-01-14T18:43:09.969Z,10.15
2024-01-14T18:45:37.849Z,10.68
2024-01-14T18:48:06.963Z,10.95
2024-01-14T18:50:35.133Z,11.63
2024-01-14T18:53:02.500Z,11.80
2024-01-14T18:55:29.236Z,10.45
2024-01-14T18:57:56.149Z,10.80
2024-01-14T19:00:22.999Z,11.35
2024-01-14T19:02:50.062Z,11.32
2024-01-14T19:05:18.023Z,12.70
2024-01-14T19:07:45.550Z,12.00
2024-01-14T19:10:12.404Z,11.80
2024-01-14T19:12:39.212Z,11.73
2024-01-14T19:15:06.913Z,10.40
2024-01-14T19:17:34.252Z,11.23
2024-01-14T19:20:01.715Z,11.85
2024-01-14T19:22:28.920Z,19.55
2024-01-14T19:24:55.838Z,12.63
2024-01-14T19:27:23.324Z,12.05
2024-01-14T19:29:50.529Z,11.23
2024-01-14T19:32:17.411Z,11.18
2024-01-14T19:34:44.542Z,12.25
2024-01-14T19:37:11.689Z,11.45
2024-01-14T19:39:42.975Z,11.50
2024-01-14T19:42:11.661Z,11.82
2024-01-14T19:44:38.765Z,10.70
2024-01-14T19:47:05.876Z,12.27
2024-01-14T19:49:32.764Z,11.55
2024-01-14T19:51:59.823Z,12.20
2024-01-14T19:54:26.654Z,12.98
2024-01-14T19:56:54.294Z,11.77
2024-01-14T19:59:24.124Z,11.35
2024-01-14T20:01:50.981Z,12.38
2024-01-14T20:04:17.938Z,12.95
2024-01-14T20:06:50.769Z,13.32
2024-01-14T20:09:23.760Z,13.30
2024-01-14T20:11:53.765Z,13.00
2024-01-14T20:14:21.086Z,14.05
2024-01-14T20:16:49.023Z,13.13
2024-01-14T20:19:16.443Z,12.55
2024-01-14T20:21:43.296Z,13.55
2024-01-14T20:24:10.794Z,13.38
2024-01-14T20:26:57.547Z,12.10
2024-01-14T20:29:24.388Z,14.32
2024-01-14T20:31:51.152Z,13.43
2024-01-14T20:34:18.418Z,15.27
2024-01-14T20:36:45.580Z,16.30
2024-01-14T20:39:12.367Z,15.15
2024-01-14T20:41:39.001Z,14.27
2024-01-14T20:44:06.272Z,14.95
2024-01-14T20:46:33.005Z,16.75
2024-01-14T20:48:59.794Z,16.75
2024-01-14T20:51:27.232Z,17.50
2024-01-14T20:53:53.965Z,16.23
2024-01-14T20:56:20.888Z,15.32
2024-01-14T20:58:47.562Z,14.07
2024-01-14T21:01:15.475Z,16.63
2024-01-14T21:03:42.582Z,15.18
2024-01-14T21:06:14.842Z,16.20
2024-01-14T21:08:43.086Z,14.90
2024-01-14T21:11:09.689Z,16.05
2024-01-14T21:13:36.451Z,15.27
2024-01-14T21:16:03.191Z,15.27
2024-01-14T21:18:30.029Z,14.70
2024-01-14T21:20:57.288Z,16.52
2024-01-14T21:23:24.081Z,17.13
2024-01-14T21:25:50.823Z,15.48
2024-01-14T21:28:18.546Z,17.70
2024-01-14T21:30:45.360Z,18.30
2024-01-14T21:33:12.283Z,19.92
2024-01-14T21:35:39.013Z,18.35
2024-01-14T21:38:06.268Z,20.00
2024-01-14T21:40:32.995Z,17.05
2024-01-14T21:42:59.723Z,21.02
2024-01-14T21:45:28.618Z,18.05
2024-01-14T21:47:55.705Z,19.20
2024-01-14T21:50:22.836Z,18.95
2024-01-14T21:52:49.772Z,18.50
2024-01-14T21:55:16.490Z,20.05
2024-01-14T21:57:43.429Z,19.75
2024-01-14T22:00:11.023Z,22.17
2024-01-14T22:02:38.397Z,19.05
2024-01-14T22:05:06.571Z,19.48
2024-01-14T22:07:33.827Z,19.17
2024-01-14T22:10:01.162Z,18.80
2024-01-14T22:12:28.134Z,19.92
2024-01-14T22:14:54.827Z,19.90
2024-01-14T22:17:21.610Z,18.38
2024-01-14T22:19:48.508Z,22.85
2024-01-14T22:22:15.422Z,19.63
2024-01-14T22:24:45.980Z,18.85
2024-01-14T22:29:40.232Z,16.40
2024-01-14T22:32:07.400Z,18.05
2024-01-14T22:34:34.576Z,18.73
2024-01-14T22:37:01.502Z,17.95
2024-01-14T22:39:28.276Z,17.45
2024-01-14T22:41:55.011Z,17.92
2024-01-14T22:44:22.136Z,18.75
2024-01-14T22:46:49.064Z,18.70
2024-01-14T22:49:16.316Z,18.42
2024-01-14T22:51:44.013Z,18.25
2024-01-14T22:54:12.390Z,19.20
2024-01-14T22:56:39.188Z,17.25
2024-01-14T22:59:05.905Z,19.02
2024-01-14T23:01:32.821Z,17.08
2024-01-14T23:03:59.746Z,18.73
2024-01-14T23:06:27.087Z,17.30
2024-01-14T23:08:53.950Z,17.67
2024-01-14T23:11:20.727Z,16.55
2024-01-14T23:13:47.352Z,17.10
2024-01-14T23:16:14.185Z,18.45
2024-01-14T23:18:41.230Z,17.70
2024-01-14T23:21:08.114Z,18.25
2024-01-14T23:23:34.766Z,20.52
2024-01-14T23:26:01.780Z,20.70
2024-01-14T23:28:28.753Z,18.17
2024-01-14T23:30:55.712Z,20.35
2024-01-14T23:33:22.571Z,19.70
2024-01-14T23:35:49.392Z,21.98
2024-01-14T23:38:16.047Z,21.15
2024-01-14T23:40:42.874Z,19.85
2024-01-14T23:43:09.715Z,18.27
2024-01-14T23:45:36.465Z,19.50
2024-01-14T23:48:03.424Z,19.30
2024-01-14T23:50:30.703Z,18.52
2024-01-14T23:52:57.388Z,20.08
2024-01-14T23:55:24.158Z,19.83
2024-01-14T23:57:50.860Z,17.75
